Time;durP1;ratioP1;P1;durP2;ratioP2;P2;SDS_P1;SDS_P2;PMS_P1;PMS_P2;Temp;Humidity;BMP_temperature;BMP_pressure;BME280_temperature;BME280_humidity;BME280_pressure;Samples;Min_cycle;Max_cycle;Signal;HPM_P1;HPM_P2
2023/03/23 00:01:04;;;;;;;5.10;3.45;;;12.30;99.90;;;;;;5061351;28;20036;-44
2023/03/23 00:03:31;;;;;;;5.13;3.30;;;12.30;99.90;;;;;;5062886;28;20127;-43
2023/03/23 00:06:04;;;;;;;5.13;2.80;;;12.30;99.90;;;;;;5061265;28;20448;-43
2023/03/23 00:08:33;;;;;;;;;;;12.30;99.90;;;;;;5062101;28;20039;-43
2023/03/23 00:11:00;;;;;;;4.55;3.13;;;12.30;99.90;;;;;;5061218;28;20714;-43
2023/03/23 00:13:28;;;;;;;2.95;2.55;;;12.30;99.90;;;;;;5061319;28;20036;-43
2023/03/23 00:15:53;;;;;;;3.15;2.50;;;12.30;99.90;;;;;;5060908;28;20765;-43
2023/03/23 00:18:26;;;;;;;4.20;2.80;;;12.30;99.90;;;;;;5059723;28;20036;-44
2023/03/23 00:20:53;;;;;;;3.22;2.78;;;12.30;99.90;;;;;;5061618;28;20032;-43
2023/03/23 00:23:24;;;;;;;4.53;2.80;;;12.30;99.90;;;;;;5060903;28;20747;-43
2023/03/23 00:25:52;;;;;;;5.63;3.28;;;12.30;99.90;;;;;;5060410;28;20028;-43
2023/03/23 00:28:24;;;;;;;4.72;3.22;;;12.30;99.90;;;;;;5060684;28;20353;-43
2023/03/23 00:31:06;;;;;;;3.22;2.53;;;12.30;99.90;;;;;;5061031;28;20032;-43
2023/03/23 00:33:40;;;;;;;3.95;2.97;;;12.40;99.90;;;;;;5060499;28;20111;-43
2023/03/23 00:36:13;;;;;;;3.88;2.90;;;12.40;99.90;;;;;;5061011;28;20426;-43
2023/03/23 00:38:41;;;;;;;6.20;3.40;;;12.40;99.90;;;;;;5061350;28;20029;-43
2023/03/23 00:41:07;;;;;;;5.55;3.10;;;12.40;99.90;;;;;;5059518;28;20695;-43
2023/03/23 00:43:35;;;;;;;4.05;3.10;;;12.40;99.90;;;;;;5060911;28;20472;-42
2023/03/23 00:46:08;;;;;;;4.65;2.80;;;12.40;99.90;;;;;;5059656;28;20029;-43
2023/03/23 00:48:35;;;;;;;5.03;2.70;;;12.40;99.90;;;;;;5060923;28;20543;-43
2023/03/23 00:51:05;;;;;;;3.88;2.60;;;12.40;99.90;;;;;;5060782;28;20031;-43
2023/03/23 00:53:32;;;;;;;3.95;2.58;;;12.40;99.90;;;;;;5060068;28;20045;-43
2023/03/23 00:55:58;;;;;;;2.42;2.20;;;12.40;99.90;;;;;;5060778;28;20029;-43
2023/03/23 00:58:23;;;;;;;3.35;2.70;;;12.40;99.90;;;;;;5060733;28;20042;-43
2023/03/23 01:00:49;;;;;;;4.57;2.92;;;12.40;99.90;;;;;;5060133;28;20035;-42
2023/03/23 01:03:17;;;;;;;3.00;2.50;;;12.40;99.90;;;;;;5059890;28;20514;-42
2023/03/23 01:05:46;;;;;;;4.13;2.85;;;12.40;99.90;;;;;;5061000;28;20042;-43
2023/03/23 01:08:13;;;;;;;4.55;2.78;;;12.40;99.90;;;;;;5058102;28;20387;-43
2023/03/23 01:10:39;;;;;;;3.03;2.50;;;12.40;99.90;;;;;;5060511;28;20025;-43
2023/03/23 01:13:06;;;;;;;4.90;2.80;;;12.40;99.90;;;;;;5060608;28;20025;-43
2023/03/23 01:15:32;;;;;;;4.95;3.08;;;12.40;99.90;;;;;;5060821;28;20024;-43
2023/03/23 01:17:57;;;;;;;8.90;2.90;;;12.30;99.90;;;;;;5060294;28;20032;-43
2023/03/23 01:20:24;;;;;;;3.20;2.58;;;12.30;99.90;;;;;;5060033;28;20052;-43
2023/03/23 01:22:50;;;;;;;3.63;2.55;;;12.30;99.90;;;;;;5059376;28;20365;-43
2023/03/23 01:25:19;;;;;;;5.20;2.85;;;12.30;99.90;;;;;;5059536;28;20463;-43
2023/03/23 01:27:44;;;;;;;3.75;2.63;;;12.30;99.90;;;;;;5059948;28;20032;-43
2023/03/23 01:30:12;;;;;;;4.07;3.08;;;12.30;99.90;;;;;;5058819;28;20020;-43
2023/03/23 01:32:43;;;;;;;6.47;3.10;;;12.30;99.90;;;;;;5059313;28;20123;-43
2023/03/23 01:35:09;;;;;;;3.90;2.50;;;12.30;99.90;;;;;;5058657;28;20079;-43
2023/03/23 01:37:36;;;;;;;3.60;2.63;;;12.30;99.90;;;;;;5060454;28;21035;-43
2023/03/23 01:40:01;;;;;;;4.43;2.55;;;12.40;99.90;;;;;;5060000;28;20039;-43
2023/03/23 01:42:36;;;;;;;3.97;2.60;;;12.40;99.90;;;;;;5059653;28;20013;-43
2023/03/23 01:45:21;;;;;;;;;;;12.40;99.90;;;;;;5049181;28;20032;-43
2023/03/23 01:47:52;;;;;;;3.08;2.50;;;12.40;99.90;;;;;;5059731;28;19908;-43
2023/03/23 01:50:20;;;;;;;3.75;2.60;;;12.40;99.90;;;;;;5059493;28;20016;-43
2023/03/23 01:52:46;;;;;;;4.45;2.63;;;12.40;99.90;;;;;;5059866;28;20073;-42
2023/03/23 01:55:12;;;;;;;3.58;2.50;;;12.40;99.90;;;;;;5058928;28;20399;-43
2023/03/23 01:57:38;;;;;;;3.08;2.38;;;12.50;99.90;;;;;;5059166;28;20156;-43
2023/03/23 02:00:10;;;;;;;5.32;2.55;;;12.40;99.90;;;;;;5058496;28;20761;-43
2023/03/23 02:02:38;;;;;;;3.42;2.30;;;12.50;99.90;;;;;;5059864;28;20032;-43
2023/03/23 02:05:11;;;;;;;3.67;2.80;;;12.50;99.90;;;;;;5057962;28;20028;-43
2023/03/23 02:07:37;;;;;;;4.97;2.53;;;12.50;99.90;;;;;;5059858;28;20055;-44
2023/03/23 02:10:05;;;;;;;3.45;2.67;;;12.50;99.90;;;;;;5059110;28;20692;-43
2023/03/23 02:12:32;;;;;;;5.53;3.10;;;12.50;99.90;;;;;;5060265;28;20202;-43
2023/03/23 02:14:57;;;;;;;4.72;3.10;;;12.50;99.90;;;;;;5059075;28;20047;-42
2023/03/23 02:17:35;;;;;;;3.85;2.58;;;12.50;99.90;;;;;;5058894;28;20149;-43
2023/03/23 02:20:28;;;;;;;3.38;3.08;;;12.50;99.90;;;;;;5059330;28;20046;-43
2023/03/23 02:23:27;;;;;;;5.77;3.30;;;12.50;99.90;;;;;;5039110;28;20087;-42
2023/03/23 02:25:56;;;;;;;4.00;2.85;;;12.60;99.90;;;;;;5059269;28;20266;-43
2023/03/23 02:28:30;;;;;;;4.22;3.10;;;12.60;99.90;;;;;;5059704;28;20111;-44
2023/03/23 02:31:38;;;;;;;4.22;3.05;;;12.60;99.90;;;;;;5059025;28;20081;-44
2023/03/23 02:34:21;;;;;;;3.58;2.50;;;12.60;99.90;;;;;;5058643;28;20048;-43
2023/03/23 02:36:55;;;;;;;4.80;3.13;;;12.60;99.90;;;;;;5048913;28;20036;-42
2023/03/23 02:39:30;;;;;;;3.40;3.10;;;12.70;99.90;;;;;;5058075;28;20139;-42
2023/03/23 02:42:05;;;;;;;4.05;3.10;;;12.70;99.90;;;;;;5048569;28;20413;-42
2023/03/23 02:44:37;;;;;;;2.45;2.22;;;12.70;99.90;;;;;;5059169;28;20028;-42
2023/03/23 02:47:07;;;;;;;3.42;2.58;;;12.70;99.90;;;;;;5058048;28;20532;-42
2023/03/23 02:49:37;;;;;;;3.10;2.67;;;12.70;99.90;;;;;;5059762;28;20017;-42
2023/03/23 02:52:08;;;;;;;2.88;2.67;;;12.70;99.90;;;;;;5059150;28;20140;-43
2023/03/23 02:54:35;;;;;;;3.67;3.30;;;12.70;99.90;;;;;;5059199;28;20079;-33
2023/03/23 02:57:02;;;;;;;3.60;3.30;;;12.70;99.90;;;;;;5060169;28;20115;-33
2023/03/23 02:59:28;;;;;;;4.03;2.80;;;12.70;99.90;;;;;;5058946;28;20031;-32
2023/03/23 03:02:01;;;;;;;3.58;2.72;;;12.80;99.90;;;;;;5059805;28;20029;-33
2023/03/23 03:04:30;;;;;;;3.85;2.70;;;12.80;99.90;;;;;;5059638;28;20032;-33
2023/03/23 03:07:48;;;;;;;3.08;2.70;;;12.70;99.90;;;;;;5060196;28;20071;-33
2023/03/23 03:10:28;;;;;;;3.35;3.05;;;12.80;99.90;;;;;;5061330;28;20032;-33
2023/03/23 03:13:12;;;;;;;2.90;2.55;;;12.70;99.90;;;;;;5063207;28;20460;-33
2023/03/23 03:15:50;;;;;;;2.88;2.60;;;12.70;99.90;;;;;;5061683;28;20047;-33
2023/03/23 03:18:22;;;;;;;2.72;2.53;;;12.70;99.90;;;;;;5052638;28;20025;-34
2023/03/23 03:20:55;;;;;;;5.90;2.90;;;12.70;99.90;;;;;;5062604;28;20139;-33
2023/03/23 03:23:23;;;;;;;4.60;2.70;;;12.70;99.90;;;;;;5052958;28;20028;-33
2023/03/23 03:25:50;;;;;;;4.07;3.17;;;12.80;99.90;;;;;;5062242;28;20040;-34
2023/03/23 03:28:22;;;;;;;4.32;2.67;;;12.70;99.90;;;;;;5060463;28;20032;-33
2023/03/23 03:30:56;;;;;;;2.92;2.70;;;12.70;99.90;;;;;;5062481;28;20754;-33
2023/03/23 03:33:25;;;;;;;3.25;2.63;;;12.80;99.90;;;;;;5061716;28;20056;-35
2023/03/23 03:35:53;;;;;;;5.35;2.63;;;12.80;99.90;;;;;;5061491;28;20392;-33
2023/03/23 03:38:18;;;;;;;4.43;3.10;;;12.80;99.90;;;;;;5062047;28;20012;-33
2023/03/23 03:40:45;;;;;;;3.67;2.53;;;12.80;99.90;;;;;;5062639;28;20569;-33
2023/03/23 03:43:10;;;;;;;3.20;2.47;;;12.80;99.90;;;;;;5060163;28;20025;-33
2023/03/23 03:45:36;;;;;;;3.55;2.92;;;12.80;99.90;;;;;;5062338;28;20039;-33
2023/03/23 03:48:02;;;;;;;2.95;2.63;;;12.80;99.90;;;;;;5061501;28;20609;-32
2023/03/23 03:50:28;;;;;;;2.90;2.60;;;12.80;99.90;;;;;;5061227;28;20021;-33
2023/03/23 03:52:54;;;;;;;4.80;2.70;;;12.80;99.90;;;;;;5061626;28;20063;-32
2023/03/23 03:55:19;;;;;;;2.70;2.25;;;12.80;99.90;;;;;;5061488;28;20044;-34
2023/03/23 03:57:45;;;;;;;4.30;2.90;;;12.80;99.90;;;;;;5061127;28;20230;-33
2023/03/23 04:00:14;;;;;;;4.70;2.90;;;12.80;99.90;;;;;;5061161;28;20033;-33
2023/03/23 04:02:42;;;;;;;3.20;2.88;;;12.80;99.90;;;;;;5062358;28;20138;-34
2023/03/23 04:05:11;;;;;;;3.55;3.25;;;12.80;99.90;;;;;;5060848;28;20123;-34
2023/03/23 04:07:38;;;;;;;3.17;2.75;;;12.70;99.90;;;;;;5061591;28;20028;-33
2023/03/23 04:10:08;;;;;;;3.22;2.92;;;12.80;99.90;;;;;;5060894;28;20078;-33
2023/03/23 04:12:35;;;;;;;2.78;2.50;;;12.80;99.90;;;;;;5060806;28;20526;-32
2023/03/23 04:15:01;;;;;;;2.72;2.53;;;12.80;99.90;;;;;;5050174;28;20045;-32
2023/03/23 04:17:26;;;;;;;4.30;2.92;;;12.80;99.90;;;;;;5060807;28;20017;-32
2023/03/23 04:19:56;;;;;;;3.03;2.53;;;12.80;99.90;;;;;;5061183;28;20028;-33
2023/03/23 04:22:24;;;;;;;4.05;2.80;;;12.80;99.90;;;;;;5061233;28;20031;-33
2023/03/23 04:24:53;;;;;;;2.97;2.40;;;12.80;99.90;;;;;;5061280;28;20078;-33
2023/03/23 04:27:18;;;;;;;2.63;2.42;;;12.90;99.90;;;;;;5060853;28;20103;-32
2023/03/23 04:29:48;;;;;;;2.90;2.42;;;12.80;99.90;;;;;;5061030;28;20780;-34
2023/03/23 04:32:14;;;;;;;5.47;3.42;;;12.90;99.90;;;;;;5060521;28;20048;-33
2023/03/23 04:34:40;;;;;;;3.33;2.70;;;12.90;99.90;;;;;;5060694;28;20128;-33
2023/03/23 04:37:13;;;;;;;3.35;2.40;;;12.90;99.90;;;;;;5060219;28;20024;-34
2023/03/23 04:39:39;;;;;;;4.63;2.90;;;12.90;99.90;;;;;;5060351;28;20081;-33
2023/03/23 04:42:05;;;;;;;3.35;2.53;;;12.90;99.90;;;;;;5060667;28;20021;-34
2023/03/23 04:44:32;;;;;;;3.72;2.42;;;12.90;99.90;;;;;;5059884;28;20091;-40
2023/03/23 04:47:03;;;;;;;3.75;2.65;;;13.00;99.90;;;;;;5060468;28;20043;-34
2023/03/23 04:49:29;;;;;;;3.95;2.60;;;13.00;99.90;;;;;;5060435;28;20098;-33
2023/03/23 04:51:56;;;;;;;2.42;2.22;;;13.00;99.90;;;;;;5060591;28;20037;-33
2023/03/23 04:54:21;;;;;;;4.53;2.10;;;13.00;99.90;;;;;;5059914;28;20036;-33
2023/03/23 04:56:47;;;;;;;3.38;2.03;;;13.00;99.90;;;;;;5060644;28;20028;-34
2023/03/23 04:59:13;;;;;;;3.85;2.30;;;13.00;99.90;;;;;;5059725;28;20082;-34
2023/03/23 05:01:40;;;;;;;4.32;2.50;;;13.00;99.90;;;;;;5060319;28;20032;-33
2023/03/23 05:04:05;;;;;;;7.07;2.83;;;13.00;99.90;;;;;;5060008;28;20031;-34
2023/03/23 05:06:31;;;;;;;4.82;2.38;;;13.00;99.90;;;;;;5059658;28;20016;-33
2023/03/23 05:08:56;;;;;;;5.38;2.60;;;13.00;99.90;;;;;;5060656;28;20032;-33
2023/03/23 05:11:22;;;;;;;4.10;2.17;;;13.00;99.90;;;;;;5060085;28;20039;-33
2023/03/23 05:13:48;;;;;;;3.95;1.70;;;13.00;99.90;;;;;;5060071;28;20036;-33
2023/03/23 05:16:14;;;;;;;4.13;2.00;;;13.00;99.90;;;;;;5059485;28;20158;-33
2023/03/23 05:18:40;;;;;;;3.90;2.10;;;12.90;99.90;;;;;;5060627;28;20430;-33
2023/03/23 05:21:05;;;;;;;4.78;2.10;;;12.90;99.90;;;;;;5058877;28;20092;-33
2023/03/23 05:23:33;;;;;;;5.38;2.08;;;13.00;99.90;;;;;;5060811;28;20062;-33
2023/03/23 05:26:06;;;;;;;7.65;2.28;;;12.90;99.90;;;;;;5059254;28;20020;-34
2023/03/23 05:28:32;;;;;;;5.00;2.10;;;13.00;99.90;;;;;;5059116;28;20369;-33
2023/03/23 05:30:57;;;;;;;6.65;2.80;;;13.00;99.90;;;;;;5059243;28;20498;-33
2023/03/23 05:33:23;;;;;;;6.85;2.03;;;13.00;99.90;;;;;;5059299;28;20287;-34
2023/03/23 05:35:49;;;;;;;7.05;1.80;;;13.00;99.90;;;;;;5058883;28;20430;-33
2023/03/23 05:38:16;;;;;;;6.43;1.92;;;13.00;99.90;;;;;;5059283;28;20067;-33
2023/03/23 05:40:42;;;;;;;4.35;2.08;;;13.10;99.90;;;;;;5059626;28;20052;-34
2023/03/23 05:43:08;;;;;;;4.90;1.70;;;13.00;99.90;;;;;;5058485;28;20040;-33
2023/03/23 05:45:34;;;;;;;5.38;2.17;;;13.00;99.90;;;;;;5059922;28;20860;-34
2023/03/23 05:48:00;;;;;;;4.65;1.70;;;13.10;99.90;;;;;;5060021;28;20093;-34
2023/03/23 05:50:27;;;;;;;7.55;2.08;;;13.00;99.90;;;;;;5058664;28;20028;-33
2023/03/23 05:52:54;;;;;;;5.47;2.25;;;13.10;99.90;;;;;;5059594;28;20061;-33
2023/03/23 05:55:20;;;;;;;5.60;1.70;;;13.00;99.90;;;;;;5058526;28;20041;-33
2023/03/23 05:57:51;;;;;;;4.28;2.05;;;13.00;99.90;;;;;;5059489;28;20062;-33
2023/03/23 06:00:22;;;;;;;6.15;1.90;;;13.00;99.90;;;;;;5059263;28;20028;-33
2023/03/23 06:02:48;;;;;;;3.92;1.30;;;13.00;99.90;;;;;;5058729;28;20069;-34
2023/03/23 06:05:15;;;;;;;3.97;1.52;;;13.00;99.90;;;;;;5059424;28;20336;-35
2023/03/23 06:07:41;;;;;;;3.78;1.75;;;13.00;99.90;;;;;;5058905;28;20064;-33
2023/03/23 06:10:10;;;;;;;3.20;1.15;;;13.10;99.90;;;;;;5058445;28;20047;-34
2023/03/23 06:12:37;;;;;;;6.25;1.60;;;13.10;99.90;;;;;;5059186;28;20261;-33
2023/03/23 06:15:05;;;;;;;3.03;1.25;;;13.10;99.90;;;;;;5058561;28;20041;-33
2023/03/23 06:17:30;;;;;;;3.95;1.70;;;13.10;99.90;;;;;;5058929;28;20024;-33
2023/03/23 06:19:56;;;;;;;4.50;1.45;;;13.10;99.90;;;;;;5059719;28;20538;-33
2023/03/23 06:22:21;;;;;;;5.25;1.95;;;13.10;99.90;;;;;;5060014;28;20133;-33
2023/03/23 06:24:48;;;;;;;5.18;1.70;;;13.20;99.90;;;;;;5059682;28;20029;-34
2023/03/23 06:27:17;;;;;;;7.05;1.55;;;13.20;99.90;;;;;;5059213;28;20025;-33
2023/03/23 06:29:43;;;;;;;4.50;1.45;;;13.20;99.90;;;;;;5060691;28;20032;-33
2023/03/23 06:32:15;;;;;;;5.88;1.33;;;13.20;99.90;;;;;;5058551;28;20047;-33
2023/03/23 06:34:44;;;;;;;5.32;1.50;;;13.20;99.90;;;;;;5048807;28;20036;-34
2023/03/23 06:37:11;;;;;;;4.28;1.63;;;13.30;99.90;;;;;;5058551;28;20032;-33
2023/03/23 06:39:39;;;;;;;3.72;1.73;;;13.30;99.90;;;;;;5058253;28;20025;-34
2023/03/23 06:42:08;;;;;;;3.35;1.30;;;13.30;99.90;;;;;;5059913;28;20132;-33
2023/03/23 06:44:34;;;;;;;4.03;1.33;;;13.20;99.90;;;;;;5059049;28;20761;-33
2023/03/23 06:47:00;;;;;;;4.53;1.65;;;13.20;99.90;;;;;;5061648;28;20017;-34
2023/03/23 06:49:25;;;;;;;4.25;1.40;;;13.20;99.90;;;;;;5061615;28;20494;-34
2023/03/23 06:51:51;;;;;;;4.10;1.55;;;13.30;99.90;;;;;;5062404;28;20023;-33
2023/03/23 06:54:16;;;;;;;4.72;1.40;;;13.30;99.90;;;;;;5062389;28;20129;-32
2023/03/23 06:56:42;;;;;;;7.25;1.80;;;13.30;99.90;;;;;;5063299;28;20028;-33
2023/03/23 06:59:09;;;;;;;5.80;1.80;;;13.20;99.90;;;;;;5061038;28;20044;-34
2023/03/23 07:01:35;;;;;;;5.60;1.70;;;13.30;99.90;;;;;;5062689;28;20111;-34
2023/03/23 07:04:00;;;;;;;4.13;1.83;;;13.30;99.90;;;;;;5061580;28;20032;-35
2023/03/23 07:06:27;;;;;;;5.22;1.70;;;13.20;99.90;;;;;;5061423;28;20024;-34
2023/03/23 07:08:52;;;;;;;4.28;1.50;;;13.20;99.90;;;;;;5062444;28;20036;-33
2023/03/23 07:11:18;;;;;;;5.78;1.85;;;13.20;99.90;;;;;;5062142;28;20024;-34
2023/03/23 07:13:44;;;;;;;4.50;1.75;;;13.20;99.90;;;;;;5061488;28;20050;-34
2023/03/23 07:16:10;;;;;;;4.65;1.73;;;13.20;99.90;;;;;;5062016;28;20693;-34
2023/03/23 07:18:36;;;;;;;6.53;1.50;;;13.30;99.90;;;;;;5062153;28;20040;-38
2023/03/23 07:21:02;;;;;;;4.03;1.40;;;13.30;99.90;;;;;;5061687;28;20495;-33
2023/03/23 07:23:29;;;;;;;6.82;2.38;;;13.30;99.90;;;;;;5062209;28;20067;-33
2023/03/23 07:25:55;;;;;;;4.32;1.77;;;13.40;99.90;;;;;;5062880;28;20636;-35
2023/03/23 07:28:21;;;;;;;6.55;1.83;;;13.40;99.90;;;;;;5060449;28;20558;-33
2023/03/23 07:30:50;;;;;;;5.40;1.70;;;13.40;99.90;;;;;;5061828;28;20102;-33
2023/03/23 07:33:16;;;;;;;4.97;1.60;;;13.40;99.90;;;;;;5061506;28;20028;-34
2023/03/23 07:35:41;;;;;;;4.30;1.45;;;13.50;99.90;;;;;;5061177;28;20052;-33
2023/03/23 07:38:08;;;;;;;4.70;1.40;;;13.50;99.90;;;;;;5061335;28;20495;-35
2023/03/23 07:40:34;;;;;;;7.95;2.05;;;13.60;99.90;;;;;;5061744;28;20032;-33
2023/03/23 07:43:01;;;;;;;3.47;1.30;;;13.60;99.90;;;;;;5062016;28;20726;-33
2023/03/23 07:45:33;;;;;;;3.63;1.30;;;13.60;99.90;;;;;;5063059;28;20058;-34
2023/03/23 07:47:59;;;;;;;4.38;1.23;;;13.50;99.90;;;;;;5062557;28;20069;-35
2023/03/23 07:50:26;;;;;;;3.78;1.42;;;13.50;99.90;;;;;;5062433;28;20077;-33
2023/03/23 07:52:54;;;;;;;4.15;1.20;;;13.40;99.90;;;;;;5062419;28;20040;-34
2023/03/23 07:55:21;;;;;;;4.68;1.30;;;13.40;99.90;;;;;;5060502;28;20051;-35
2023/03/23 07:57:50;;;;;;;4.53;1.20;;;13.30;99.90;;;;;;5058423;28;20028;-33
2023/03/23 08:00:22;;;;;;;4.55;2.08;;;13.30;99.90;;;;;;5058703;28;20113;-34
2023/03/23 08:02:55;;;;;;;4.32;2.00;;;13.20;99.90;;;;;;5049721;28;20036;-33
2023/03/23 08:05:21;;;;;;;6.07;1.65;;;13.10;99.90;;;;;;5047920;28;20059;-34
2023/03/23 08:07:49;;;;;;;3.55;1.60;;;13.10;99.90;;;;;;5047787;28;20032;-34
2023/03/23 08:10:17;;;;;;;3.28;1.35;;;13.00;99.90;;;;;;5047737;28;20028;-34
2023/03/23 08:12:43;;;;;;;5.07;1.50;;;13.00;99.90;;;;;;5048812;28;20029;-34
2023/03/23 08:15:17;;;;;;;4.35;1.60;;;13.00;99.90;;;;;;5047032;28;20048;-34
2023/03/23 08:17:43;;;;;;;5.00;2.00;;;13.00;99.90;;;;;;5047759;28;20039;-34
2023/03/23 08:20:13;;;;;;;5.40;1.77;;;13.00;99.90;;;;;;5047340;28;20086;-33
2023/03/23 08:22:40;;;;;;;6.13;2.00;;;13.00;99.90;;;;;;5047882;28;20120;-34
2023/03/23 08:25:08;;;;;;;4.50;1.50;;;13.00;99.90;;;;;;5047751;28;20207;-34
2023/03/23 08:27:33;;;;;;;4.15;1.65;;;13.00;99.90;;;;;;5046728;28;20044;-33
2023/03/23 08:29:59;;;;;;;4.63;1.70;;;13.10;99.90;;;;;;5047288;28;20037;-33
2023/03/23 08:32:25;;;;;;;2.85;1.50;;;13.10;99.90;;;;;;5046376;28;20435;-35
2023/03/23 08:34:51;;;;;;;4.50;1.90;;;13.10;99.90;;;;;;5047551;28;20032;-34
2023/03/23 08:37:17;;;;;;;4.43;1.83;;;13.10;99.90;;;;;;5046035;28;20029;-34
2023/03/23 08:39:43;;;;;;;4.32;1.70;;;13.10;99.90;;;;;;5047669;28;20078;-33
2023/03/23 08:42:09;;;;;;;3.78;1.55;;;13.10;99.90;;;;;;5046109;28;20025;-33
2023/03/23 08:44:36;;;;;;;4.90;1.60;;;13.20;99.90;;;;;;5047602;28;20067;-34
2023/03/23 08:47:03;;;;;;;3.33;1.40;;;13.30;99.90;;;;;;5047747;28;20028;-33
2023/03/23 08:49:32;;;;;;;3.45;1.58;;;13.30;99.90;;;;;;5047635;28;20032;-33
2023/03/23 08:51:58;;;;;;;6.45;1.63;;;13.40;99.90;;;;;;5047217;28;20043;-33
2023/03/23 08:54:24;;;;;;;4.88;1.58;;;13.40;99.90;;;;;;5047661;28;21107;-33
2023/03/23 08:56:50;;;;;;;4.43;1.40;;;13.40;99.90;;;;;;5046800;28;20973;-34
2023/03/23 08:59:16;;;;;;;3.00;1.27;;;13.50;99.90;;;;;;5046333;28;20037;-33
2023/03/23 09:01:41;;;;;;;4.13;1.67;;;13.50;99.90;;;;;;5047195;28;20907;-34
2023/03/23 09:04:08;;;;;;;4.40;1.67;;;13.60;99.90;;;;;;5046728;28;20056;-34
2023/03/23 09:06:36;;;;;;;2.50;1.08;;;13.60;99.90;;;;;;5046745;28;20024;-34
2023/03/23 09:09:06;;;;;;;3.45;1.20;;;13.60;99.90;;;;;;5046716;28;20037;-34
2023/03/23 09:11:33;;;;;;;2.15;1.23;;;13.60;99.90;;;;;;5047625;28;20758;-32
2023/03/23 09:13:58;;;;;;;2.42;0.90;;;13.60;99.90;;;;;;5046577;28;20120;-33
2023/03/23 09:16:27;;;;;;;2.30;0.90;;;13.70;99.90;;;;;;5047900;28;20452;-32
2023/03/23 09:18:53;;;;;;;4.88;1.45;;;13.70;99.90;;;;;;5045959;28;20036;-33
2023/03/23 09:21:20;;;;;;;3.83;1.23;;;13.80;99.90;;;;;;5049790;28;20383;-33
2023/03/23 09:23:46;;;;;;;2.13;1.08;;;13.80;99.90;;;;;;5059382;28;20371;-34
2023/03/23 09:26:12;;;;;;;3.15;1.25;;;13.80;99.90;;;;;;5060573;28;20035;-34
2023/03/23 09:28:37;;;;;;;2.83;1.17;;;13.80;99.90;;;;;;5059136;28;20063;-32
2023/03/23 09:31:04;;;;;;;4.85;1.20;;;13.90;99.90;;;;;;5059333;28;20060;-33
2023/03/23 09:33:33;;;;;;;4.68;1.65;;;13.90;99.90;;;;;;5059150;28;20028;-34
2023/03/23 09:36:02;;;;;;;4.45;1.10;;;13.80;99.90;;;;;;5060131;28;20028;-34
2023/03/23 09:38:32;;;;;;;4.05;1.40;;;13.70;99.90;;;;;;5059144;28;20029;-34
2023/03/23 09:41:35;;;;;;;4.18;1.20;;;13.70;99.90;;;;;;5059845;28;20030;-34
2023/03/23 09:44:16;;;;;;;2.45;0.98;;;13.70;99.90;;;;;;5060095;28;20073;-33
2023/03/23 09:47:14;;;;;;;3.53;1.25;;;13.70;99.90;;;;;;5060188;28;20516;-33
2023/03/23 09:49:58;;;;;;;5.63;1.50;;;13.70;99.90;;;;;;5059311;28;20024;-33
2023/03/23 09:52:43;;;;;;;3.38;1.10;;;13.70;99.90;;;;;;5059501;28;20443;-34
2023/03/23 09:55:14;;;;;;;2.97;1.10;;;13.80;99.90;;;;;;5058093;28;20120;-34
2023/03/23 09:57:59;;;;;;;5.65;1.42;;;13.90;99.90;;;;;;5060450;28;20024;-34
2023/03/23 10:00:39;;;;;;;6.32;1.90;;;14.00;99.90;;;;;;5059320;28;20077;-33
2023/03/23 10:03:15;;;;;;;3.05;1.30;;;14.10;99.90;;;;;;5038927;28;20131;-33
2023/03/23 10:05:42;;;;;;;5.32;2.05;;;14.20;99.90;;;;;;5056996;28;20039;-32
2023/03/23 10:08:26;;;;;;;7.43;2.40;;;14.20;99.90;;;;;;5059285;28;20028;-34
2023/03/23 10:11:02;;;;;;;8.65;2.22;;;14.10;99.90;;;;;;5058659;28;20024;-34
2023/03/23 10:13:31;;;;;;;5.57;1.77;;;14.20;99.90;;;;;;5059592;28;20029;-34
2023/03/23 10:15:57;;;;;;;7.05;1.95;;;14.30;99.90;;;;;;5058668;28;20033;-33
2023/03/23 10:18:31;;;;;;;11.20;2.28;;;14.30;99.90;;;;;;5057806;28;20040;-33
2023/03/23 10:21:01;;;;;;;4.90;1.58;;;14.40;99.90;;;;;;5059209;28;20063;-34
2023/03/23 10:23:53;;;;;;;6.47;2.00;;;14.40;99.90;;;;;;5059457;28;20086;-33
2023/03/23 10:26:38;;;;;;;5.30;1.63;;;14.50;99.90;;;;;;5059827;28;20063;-33
2023/03/23 10:29:26;;;;;;;6.22;1.60;;;14.50;99.90;;;;;;5039296;28;20029;-33
2023/03/23 10:31:59;;;;;;;5.53;1.70;;;14.60;99.90;;;;;;5057592;28;20063;-32
2023/03/23 10:34:40;;;;;;;5.43;1.52;;;14.60;99.90;;;;;;5059636;28;20086;-33
2023/03/23 10:37:17;;;;;;;7.35;2.00;;;14.60;99.90;;;;;;5058168;28;20027;-33
2023/03/23 10:39:58;;;;;;;6.50;2.00;;;14.50;99.90;;;;;;5059598;28;20035;-33
2023/03/23 10:42:32;;;;;;;8.05;1.75;;;14.60;99.90;;;;;;5058705;28;20020;-34
2023/03/23 10:45:08;;;;;;;5.97;2.08;;;14.60;99.90;;;;;;5058295;28;20025;-34
2023/03/23 10:47:38;;;;;;;7.13;2.10;;;14.70;99.90;;;;;;5058288;28;20017;-33
2023/03/23 10:50:05;;;;;;;7.40;2.28;;;14.80;99.90;;;;;;5059167;28;20062;-34
2023/03/23 10:52:37;;;;;;;7.80;2.05;;;14.80;99.90;;;;;;5058616;28;20048;-32
2023/03/23 10:55:18;;;;;;;8.70;2.00;;;14.80;99.90;;;;;;5059510;28;20417;-35
2023/03/23 10:58:03;;;;;;;8.88;1.70;;;14.90;99.90;;;;;;5058930;28;20116;-34
2023/03/23 11:00:30;;;;;;;6.28;1.88;;;14.90;99.90;;;;;;5059667;28;20036;-34
2023/03/23 11:03:03;;;;;;;6.72;1.70;;;15.00;99.90;;;;;;5058954;28;20767;-33
2023/03/23 11:05:37;;;;;;;6.15;2.10;;;15.00;99.90;;;;;;5059000;28;20016;-33
2023/03/23 11:08:10;;;;;;;4.70;1.70;;;15.10;99.90;;;;;;5058605;28;20021;-32
2023/03/23 11:10:39;;;;;;;7.88;1.65;;;15.20;99.90;;;;;;5059806;28;20071;-33
2023/03/23 11:13:10;;;;;;;5.28;2.10;;;15.10;99.90;;;;;;5058158;28;20033;-33
2023/03/23 11:15:41;;;;;;;6.45;1.67;;;15.20;99.90;;;;;;5060673;28;20064;-33
2023/03/23 11:18:13;;;;;;;11.20;1.98;;;15.30;99.90;;;;;;5059040;28;20033;-34
2023/03/23 11:20:44;;;;;;;6.38;1.90;;;15.30;99.90;;;;;;5058782;28;20032;-34
2023/03/23 11:23:53;;;;;;;4.43;1.67;;;15.40;99.90;;;;;;5058217;28;20028;-34
2023/03/23 11:26:28;;;;;;;5.10;1.58;;;15.50;99.90;;;;;;5015138;28;20047;-34
2023/03/23 11:29:22;;;;;;;7.13;2.20;;;15.50;99.90;;;;;;5035882;28;20021;-35
2023/03/23 11:32:00;;;;;;;7.15;2.20;;;15.50;99.90;;;;;;5042878;28;20045;-33
2023/03/23 11:34:33;;;;;;;4.97;1.77;;;15.60;99.90;;;;;;5061380;28;20036;-33
2023/03/23 11:37:04;;;;;;;7.85;2.05;;;15.70;99.90;;;;;;5062027;28;20699;-35
2023/03/23 11:39:33;;;;;;;5.07;1.88;;;15.80;99.90;;;;;;5062538;28;20100;-35
2023/03/23 11:42:12;;;;;;;6.03;1.90;;;16.00;99.90;;;;;;5061986;28;20052;-33
2023/03/23 11:44:44;;;;;;;6.78;1.45;;;16.10;99.90;;;;;;5058831;28;20099;-34
2023/03/23 11:47:29;;;;;;;5.28;2.10;;;16.20;99.90;;;;;;5060759;28;20032;-33
2023/03/23 11:50:44;;;;;;;6.40;1.65;;;16.20;99.90;;;;;;5059956;28;20028;-35
2023/03/23 11:53:32;;;;;;;12.02;2.10;;;16.20;99.90;;;;;;5058998;28;20041;-33
2023/03/23 11:56:21;;;;;;;7.90;1.80;;;16.10;99.90;;;;;;5061190;28;20043;-34
2023/03/23 11:58:47;;;;;;;5.55;1.90;;;16.10;99.90;;;;;;5061911;28;20032;-33
2023/03/23 12:01:40;;;;;;;4.57;1.42;;;16.10;99.90;;;;;;5061283;28;20355;-34
2023/03/23 12:04:25;;;;;;;6.53;1.63;;;16.10;99.90;;;;;;5061408;28;20025;-35
2023/03/23 12:07:00;;;;;;;6.13;1.52;;;16.20;99.90;;;;;;5062169;28;20553;-34
2023/03/23 12:09:42;;;;;;;4.47;1.38;;;16.10;99.90;;;;;;5060735;28;20032;-35
2023/03/23 12:12:42;;;;;;;3.65;1.33;;;16.10;99.90;;;;;;5061523;28;20028;-33
2023/03/23 12:15:26;;;;;;;3.45;1.40;;;16.10;99.90;;;;;;5060405;28;20040;-34
2023/03/23 12:18:00;;;;;;;3.40;1.55;;;15.90;99.90;;;;;;5061823;28;20051;-33
2023/03/23 12:20:45;;;;;;;6.25;1.90;;;15.80;99.90;;;;;;5061774;28;20028;-33
2023/03/23 12:23:27;;;;;;;6.25;1.65;;;15.70;99.90;;;;;;5061305;28;20112;-34
2023/03/23 12:26:02;;;;;;;;;;;15.60;99.90;;;;;;5061737;28;20085;-34
2023/03/23 12:28:45;;;;;;;3.40;1.40;;;15.60;99.90;;;;;;5061682;28;20592;-34
2023/03/23 12:31:32;;;;;;;4.15;1.50;;;15.70;99.90;;;;;;5060484;28;20035;-34
2023/03/23 12:34:17;;;;;;;5.00;1.42;;;15.80;99.90;;;;;;5061176;28;20043;-32
2023/03/23 12:37:02;;;;;;;5.47;1.50;;;15.90;99.90;;;;;;5050373;28;20024;-34
2023/03/23 12:39:43;;;;;;;4.80;1.70;;;15.90;99.90;;;;;;5061267;28;20032;-34
2023/03/23 12:42:16;;;;;;;4.97;1.85;;;15.90;99.90;;;;;;5052319;28;20763;-34
2023/03/23 12:45:13;;;;;;;4.45;1.45;;;15.80;99.90;;;;;;5060580;28;20017;-33
2023/03/23 12:48:05;;;;;;;4.50;1.40;;;15.80;99.90;;;;;;5060807;28;20063;-33
2023/03/23 12:50:39;;;;;;;5.38;1.80;;;15.80;99.90;;;;;;5060580;28;20750;-33
2023/03/23 12:53:23;;;;;;;4.68;1.67;;;15.70;99.90;;;;;;5060404;28;20044;-34
2023/03/23 12:56:12;;;;;;;6.65;1.75;;;15.60;99.90;;;;;;5061144;28;20085;-33
2023/03/23 12:58:50;;;;;;;5.93;1.83;;;15.50;99.90;;;;;;5060383;28;20367;-33
2023/03/23 13:01:27;;;;;;;6.07;1.60;;;15.30;99.90;;;;;;5060654;28;20451;-34
2023/03/23 13:04:11;;;;;;;5.82;1.50;;;14.90;99.90;;;;;;5060737;28;20028;-33
2023/03/23 13:06:41;;;;;;;4.72;1.40;;;14.40;99.90;;;;;;5059748;28;20047;-34
2023/03/23 13:09:28;;;;;;;5.13;1.50;;;14.10;99.90;;;;;;5059511;28;20581;-33